sensor_id;sensor_type;location;lat;lon;timestamp;P1;durP1;ratioP1;P2;durP2;ratioP2
76667;SDS011;65585;51.166;16.922;2023-04-06T00:02:15;39.38;;;22.38;;
76667;SDS011;65585;51.166;16.922;2023-04-06T00:05:26;34.75;;;22.17;;
76667;SDS011;65585;51.166;16.922;2023-04-06T00:08:06;34.33;;;19.60;;
76667;SDS011;65585;51.166;16.922;2023-04-06T00:11:21;34.80;;;21.55;;
76667;SDS011;65585;51.166;16.922;2023-04-06T00:14:16;35.50;;;20.10;;
76667;SDS011;65585;51.166;16.922;2023-04-06T00:16:59;34.55;;;20.55;;
76667;SDS011;65585;51.166;16.922;2023-04-06T00:19:52;35.10;;;20.52;;
76667;SDS011;65585;51.166;16.922;2023-04-06T00:22:55;36.05;;;21.15;;
76667;SDS011;65585;51.166;16.922;2023-04-06T00:25:57;29.02;;;19.98;;
76667;SDS011;65585;51.166;16.922;2023-04-06T00:32:31;37.67;;;18.70;;
76667;SDS011;65585;51.166;16.922;2023-04-06T00:39:59;29.52;;;18.35;;
76667;SDS011;65585;51.166;16.922;2023-04-06T00:53:16;32.53;;;19.38;;
76667;SDS011;65585;51.166;16.922;2023-04-06T00:56:52;24.55;;;16.65;;
76667;SDS011;65585;51.166;16.922;2023-04-06T01:10:05;34.35;;;16.92;;
76667;SDS011;65585;51.166;16.922;2023-04-06T01:12:56;30.58;;;16.00;;
76667;SDS011;65585;51.166;16.922;2023-04-06T01:15:53;31.45;;;17.90;;
76667;SDS011;65585;51.166;16.922;2023-04-06T01:22:43;21.40;;;15.85;;
76667;SDS011;65585;51.166;16.922;2023-04-06T01:25:48;23.27;;;15.50;;
76667;SDS011;65585;51.166;16.922;2023-04-06T01:29:09;28.08;;;16.17;;
76667;SDS011;65585;51.166;16.922;2023-04-06T01:36:05;26.88;;;15.07;;
76667;SDS011;65585;51.166;16.922;2023-04-06T01:39:33;20.08;;;14.10;;
76667;SDS011;65585;51.166;16.922;2023-04-06T01:42:41;26.25;;;15.75;;
76667;SDS011;65585;51.166;16.922;2023-04-06T01:45:55;29.42;;;17.42;;
76667;SDS011;65585;51.166;16.922;2023-04-06T01:59:29;23.10;;;10.70;;
76667;SDS011;65585;51.166;16.922;2023-04-06T02:01:55;24.30;;;11.77;;
76667;SDS011;65585;51.166;16.922;2023-04-06T02:04:21;24.45;;;14.85;;
76667;SDS011;65585;51.166;16.922;2023-04-06T02:06:48;22.75;;;13.57;;
76667;SDS011;65585;51.166;16.922;2023-04-06T02:09:14;26.08;;;13.77;;
76667;SDS011;65585;51.166;16.922;2023-04-06T02:11:51;28.02;;;16.08;;
76667;SDS011;65585;51.166;16.922;2023-04-06T02:14:39;25.35;;;15.48;;
76667;SDS011;65585;51.166;16.922;2023-04-06T02:17:28;26.55;;;17.60;;
76667;SDS011;65585;51.166;16.922;2023-04-06T02:20:24;25.70;;;14.57;;
76667;SDS011;65585;51.166;16.922;2023-04-06T02:23:03;21.40;;;14.05;;
76667;SDS011;65585;51.166;16.922;2023-04-06T02:25:36;29.42;;;16.67;;
76667;SDS011;65585;51.166;16.922;2023-04-06T02:28:25;24.17;;;13.50;;
76667;SDS011;65585;51.166;16.922;2023-04-06T02:31:06;26.42;;;15.60;;
76667;SDS011;65585;51.166;16.922;2023-04-06T02:33:50;28.63;;;14.98;;
76667;SDS011;65585;51.166;16.922;2023-04-06T02:36:34;23.83;;;13.30;;
76667;SDS011;65585;51.166;16.922;2023-04-06T02:39:15;22.65;;;14.63;;
76667;SDS011;65585;51.166;16.922;2023-04-06T02:42:17;26.75;;;14.05;;
76667;SDS011;65585;51.166;16.922;2023-04-06T02:45:49;28.42;;;15.30;;
76667;SDS011;65585;51.166;16.922;2023-04-06T02:48:59;24.70;;;13.48;;
76667;SDS011;65585;51.166;16.922;2023-04-06T02:51:38;20.85;;;13.15;;
76667;SDS011;65585;51.166;16.922;2023-04-06T02:54:27;22.58;;;14.48;;
76667;SDS011;65585;51.166;16.922;2023-04-06T02:57:05;35.88;;;16.27;;
76667;SDS011;65585;51.166;16.922;2023-04-06T02:59:31;25.45;;;16.10;;
76667;SDS011;65585;51.166;16.922;2023-04-06T03:01:57;29.00;;;15.20;;
76667;SDS011;65585;51.166;16.922;2023-04-06T03:04:24;24.75;;;14.88;;
76667;SDS011;65585;51.166;16.922;2023-04-06T03:06:51;26.20;;;16.52;;
76667;SDS011;65585;51.166;16.922;2023-04-06T03:11:45;25.05;;;13.40;;
76667;SDS011;65585;51.166;16.922;2023-04-06T03:14:12;28.35;;;15.95;;
76667;SDS011;65585;51.166;16.922;2023-04-06T03:16:37;26.05;;;14.43;;
76667;SDS011;65585;51.166;16.922;2023-04-06T03:19:04;25.52;;;14.88;;
76667;SDS011;65585;51.166;16.922;2023-04-06T03:21:30;27.13;;;15.98;;
76667;SDS011;65585;51.166;16.922;2023-04-06T03:23:57;32.97;;;15.82;;
76667;SDS011;65585;51.166;16.922;2023-04-06T03:26:23;32.30;;;16.88;;
76667;SDS011;65585;51.166;16.922;2023-04-06T03:28:50;40.45;;;17.17;;
76667;SDS011;65585;51.166;16.922;2023-04-06T03:31:17;29.00;;;16.25;;
76667;SDS011;65585;51.166;16.922;2023-04-06T03:33:47;36.67;;;15.85;;
76667;SDS011;65585;51.166;16.922;2023-04-06T03:36:13;28.25;;;16.52;;
76667;SDS011;65585;51.166;16.922;2023-04-06T03:38:39;29.45;;;16.50;;
76667;SDS011;65585;51.166;16.922;2023-04-06T03:41:06;24.95;;;15.40;;
76667;SDS011;65585;51.166;16.922;2023-04-06T03:43:32;25.90;;;15.93;;
76667;SDS011;65585;51.166;16.922;2023-04-06T03:46:01;34.97;;;17.15;;
76667;SDS011;65585;51.166;16.922;2023-04-06T03:48:34;22.90;;;12.93;;
76667;SDS011;65585;51.166;16.922;2023-04-06T03:51:00;25.08;;;14.30;;
76667;SDS011;65585;51.166;16.922;2023-04-06T03:53:26;27.10;;;15.45;;
76667;SDS011;65585;51.166;16.922;2023-04-06T03:55:53;36.15;;;17.75;;
76667;SDS011;65585;51.166;16.922;2023-04-06T03:58:19;29.98;;;14.82;;
76667;SDS011;65585;51.166;16.922;2023-04-06T04:00:45;30.15;;;16.27;;
76667;SDS011;65585;51.166;16.922;2023-04-06T04:03:12;30.77;;;16.67;;
76667;SDS011;65585;51.166;16.922;2023-04-06T04:05:38;26.85;;;14.88;;
76667;SDS011;65585;51.166;16.922;2023-04-06T04:08:05;34.85;;;16.73;;
76667;SDS011;65585;51.166;16.922;2023-04-06T04:10:32;32.08;;;16.17;;
76667;SDS011;65585;51.166;16.922;2023-04-06T04:13:01;41.75;;;19.27;;
76667;SDS011;65585;51.166;16.922;2023-04-06T04:15:27;32.65;;;18.23;;
76667;SDS011;65585;51.166;16.922;2023-04-06T04:17:54;27.35;;;18.10;;
76667;SDS011;65585;51.166;16.922;2023-04-06T04:20:20;36.78;;;18.13;;
76667;SDS011;65585;51.166;16.922;2023-04-06T04:22:47;32.67;;;20.83;;
76667;SDS011;65585;51.166;16.922;2023-04-06T04:25:14;35.92;;;20.92;;
76667;SDS011;65585;51.166;16.922;2023-04-06T04:27:41;41.78;;;20.08;;
76667;SDS011;65585;51.166;16.922;2023-04-06T04:30:07;29.05;;;18.40;;
76667;SDS011;65585;51.166;16.922;2023-04-06T04:32:34;38.38;;;21.00;;
76667;SDS011;65585;51.166;16.922;2023-04-06T04:35:00;31.33;;;17.33;;
76667;SDS011;65585;51.166;16.922;2023-04-06T04:37:27;43.20;;;20.77;;
76667;SDS011;65585;51.166;16.922;2023-04-06T04:39:54;33.20;;;20.75;;
76667;SDS011;65585;51.166;16.922;2023-04-06T04:42:21;30.60;;;18.15;;
76667;SDS011;65585;51.166;16.922;2023-04-06T04:44:47;36.80;;;19.67;;
76667;SDS011;65585;51.166;16.922;2023-04-06T04:47:14;33.85;;;19.42;;
76667;SDS011;65585;51.166;16.922;2023-04-06T04:49:40;45.92;;;20.92;;
76667;SDS011;65585;51.166;16.922;2023-04-06T04:52:07;35.50;;;20.08;;
76667;SDS011;65585;51.166;16.922;2023-04-06T04:54:37;33.97;;;18.83;;
76667;SDS011;65585;51.166;16.922;2023-04-06T04:57:04;34.80;;;18.85;;
76667;SDS011;65585;51.166;16.922;2023-04-06T04:59:30;40.35;;;20.50;;
76667;SDS011;65585;51.166;16.922;2023-04-06T05:02:00;48.35;;;24.10;;
76667;SDS011;65585;51.166;16.922;2023-04-06T05:04:26;54.00;;;25.38;;
76667;SDS011;65585;51.166;16.922;2023-04-06T05:07:06;48.38;;;24.73;;
76667;SDS011;65585;51.166;16.922;2023-04-06T05:09:35;40.60;;;21.52;;
76667;SDS011;65585;51.166;16.922;2023-04-06T05:12:06;43.88;;;22.67;;
76667;SDS011;65585;51.166;16.922;2023-04-06T05:14:32;42.55;;;22.02;;
76667;SDS011;65585;51.166;16.922;2023-04-06T05:16:59;39.25;;;21.92;;
76667;SDS011;65585;51.166;16.922;2023-04-06T05:19:29;42.00;;;21.35;;
76667;SDS011;65585;51.166;16.922;2023-04-06T05:21:56;40.90;;;20.73;;
76667;SDS011;65585;51.166;16.922;2023-04-06T05:24:22;44.13;;;24.00;;
76667;SDS011;65585;51.166;16.922;2023-04-06T05:26:55;50.85;;;26.65;;
76667;SDS011;65585;51.166;16.922;2023-04-06T05:29:23;45.53;;;22.90;;
76667;SDS011;65585;51.166;16.922;2023-04-06T05:31:50;49.22;;;24.17;;
76667;SDS011;65585;51.166;16.922;2023-04-06T05:34:28;49.83;;;25.50;;
76667;SDS011;65585;51.166;16.922;2023-04-06T05:37:04;50.88;;;29.45;;
76667;SDS011;65585;51.166;16.922;2023-04-06T05:39:33;53.30;;;27.27;;
76667;SDS011;65585;51.166;16.922;2023-04-06T05:42:08;53.50;;;28.50;;
76667;SDS011;65585;51.166;16.922;2023-04-06T05:44:40;49.30;;;25.98;;
76667;SDS011;65585;51.166;16.922;2023-04-06T05:47:08;51.38;;;29.73;;
76667;SDS011;65585;51.166;16.922;2023-04-06T05:50:05;50.75;;;25.77;;
76667;SDS011;65585;51.166;16.922;2023-04-06T05:52:33;51.45;;;26.98;;
76667;SDS011;65585;51.166;16.922;2023-04-06T05:55:10;61.00;;;28.88;;
76667;SDS011;65585;51.166;16.922;2023-04-06T06:00:30;53.30;;;28.45;;
76667;SDS011;65585;51.166;16.922;2023-04-06T06:02:59;52.60;;;27.40;;
76667;SDS011;65585;51.166;16.922;2023-04-06T06:05:28;54.72;;;28.63;;
76667;SDS011;65585;51.166;16.922;2023-04-06T06:08:01;48.55;;;25.17;;
76667;SDS011;65585;51.166;16.922;2023-04-06T06:10:36;44.72;;;24.65;;
76667;SDS011;65585;51.166;16.922;2023-04-06T06:13:13;44.92;;;24.98;;
76667;SDS011;65585;51.166;16.922;2023-04-06T06:15:45;45.28;;;24.80;;
76667;SDS011;65585;51.166;16.922;2023-04-06T06:18:17;49.80;;;25.35;;
76667;SDS011;65585;51.166;16.922;2023-04-06T06:20:43;51.90;;;24.92;;
76667;SDS011;65585;51.166;16.922;2023-04-06T06:23:10;50.00;;;26.48;;
76667;SDS011;65585;51.166;16.922;2023-04-06T06:25:36;49.47;;;25.67;;
76667;SDS011;65585;51.166;16.922;2023-04-06T06:28:02;41.65;;;25.60;;
76667;SDS011;65585;51.166;16.922;2023-04-06T06:30:28;51.25;;;27.40;;
76667;SDS011;65585;51.166;16.922;2023-04-06T06:37:04;40.05;;;24.58;;
76667;SDS011;65585;51.166;16.922;2023-04-06T06:39:31;53.72;;;26.95;;
76667;SDS011;65585;51.166;16.922;2023-04-06T06:41:57;47.85;;;27.13;;
76667;SDS011;65585;51.166;16.922;2023-04-06T06:44:27;48.05;;;26.38;;
76667;SDS011;65585;51.166;16.922;2023-04-06T06:46:53;42.65;;;24.27;;
76667;SDS011;65585;51.166;16.922;2023-04-06T06:49:20;50.03;;;27.92;;
76667;SDS011;65585;51.166;16.922;2023-04-06T06:51:46;51.55;;;26.65;;
76667;SDS011;65585;51.166;16.922;2023-04-06T06:54:13;51.60;;;27.92;;
76667;SDS011;65585;51.166;16.922;2023-04-06T06:56:39;44.25;;;25.65;;
76667;SDS011;65585;51.166;16.922;2023-04-06T06:59:06;53.53;;;31.10;;
76667;SDS011;65585;51.166;16.922;2023-04-06T07:01:32;47.35;;;28.08;;
76667;SDS011;65585;51.166;16.922;2023-04-06T07:03:59;49.28;;;26.30;;
76667;SDS011;65585;51.166;16.922;2023-04-06T07:06:26;44.53;;;26.73;;
76667;SDS011;65585;51.166;16.922;2023-04-06T07:08:52;45.92;;;25.15;;
76667;SDS011;65585;51.166;16.922;2023-04-06T07:11:19;47.80;;;25.27;;
76667;SDS011;65585;51.166;16.922;2023-04-06T07:13:48;47.95;;;25.48;;
76667;SDS011;65585;51.166;16.922;2023-04-06T07:16:19;46.10;;;26.17;;
76667;SDS011;65585;51.166;16.922;2023-04-06T07:18:46;47.30;;;25.63;;
76667;SDS011;65585;51.166;16.922;2023-04-06T07:21:13;37.15;;;24.23;;
76667;SDS011;65585;51.166;16.922;2023-04-06T07:23:39;43.05;;;23.17;;
76667;SDS011;65585;51.166;16.922;2023-04-06T07:26:05;42.22;;;25.42;;
76667;SDS011;65585;51.166;16.922;2023-04-06T07:28:33;41.22;;;23.67;;
76667;SDS011;65585;51.166;16.922;2023-04-06T07:30:59;47.22;;;24.95;;
76667;SDS011;65585;51.166;16.922;2023-04-06T07:33:26;38.80;;;21.70;;
76667;SDS011;65585;51.166;16.922;2023-04-06T07:35:55;38.33;;;22.60;;
76667;SDS011;65585;51.166;16.922;2023-04-06T07:38:23;35.22;;;21.55;;
76667;SDS011;65585;51.166;16.922;2023-04-06T07:40:49;37.47;;;20.95;;
76667;SDS011;65585;51.166;16.922;2023-04-06T07:43:16;34.50;;;19.98;;
76667;SDS011;65585;51.166;16.922;2023-04-06T07:45:49;35.63;;;20.77;;
76667;SDS011;65585;51.166;16.922;2023-04-06T07:48:19;30.33;;;17.63;;
76667;SDS011;65585;51.166;16.922;2023-04-06T07:50:45;34.78;;;18.50;;
76667;SDS011;65585;51.166;16.922;2023-04-06T07:53:18;31.73;;;20.23;;
76667;SDS011;65585;51.166;16.922;2023-04-06T07:56:01;31.70;;;19.20;;
76667;SDS011;65585;51.166;16.922;2023-04-06T07:58:27;34.92;;;19.83;;
76667;SDS011;65585;51.166;16.922;2023-04-06T08:00:55;30.13;;;18.50;;
76667;SDS011;65585;51.166;16.922;2023-04-06T08:03:23;33.15;;;18.55;;
76667;SDS011;65585;51.166;16.922;2023-04-06T08:05:54;33.13;;;19.55;;
76667;SDS011;65585;51.166;16.922;2023-04-06T08:08:25;29.30;;;17.67;;
76667;SDS011;65585;51.166;16.922;2023-04-06T08:10:56;30.80;;;16.75;;
76667;SDS011;65585;51.166;16.922;2023-04-06T08:13:25;24.77;;;17.65;;
76667;SDS011;65585;51.166;16.922;2023-04-06T08:16:00;25.15;;;15.65;;
76667;SDS011;65585;51.166;16.922;2023-04-06T08:18:36;21.65;;;14.60;;
76667;SDS011;65585;51.166;16.922;2023-04-06T08:21:02;17.38;;;12.15;;
76667;SDS011;65585;51.166;16.922;2023-04-06T08:23:30;21.70;;;12.55;;
76667;SDS011;65585;51.166;16.922;2023-04-06T08:25:56;22.13;;;12.60;;
76667;SDS011;65585;51.166;16.922;2023-04-06T08:28:22;20.92;;;13.38;;
76667;SDS011;65585;51.166;16.922;2023-04-06T08:30:51;20.20;;;12.88;;
76667;SDS011;65585;51.166;16.922;2023-04-06T08:33:22;18.15;;;12.38;;
76667;SDS011;65585;51.166;16.922;2023-04-06T08:35:49;19.70;;;11.88;;
76667;SDS011;65585;51.166;16.922;2023-04-06T08:38:15;18.67;;;12.15;;
76667;SDS011;65585;51.166;16.922;2023-04-06T08:40:41;15.27;;;10.88;;
76667;SDS011;65585;51.166;16.922;2023-04-06T08:43:12;12.50;;;8.73;;
76667;SDS011;65585;51.166;16.922;2023-04-06T08:46:04;13.85;;;8.23;;
76667;SDS011;65585;51.166;16.922;2023-04-06T08:48:40;13.95;;;7.40;;
76667;SDS011;65585;51.166;16.922;2023-04-06T08:51:10;17.08;;;10.65;;
76667;SDS011;65585;51.166;16.922;2023-04-06T08:53:39;14.35;;;9.02;;
76667;SDS011;65585;51.166;16.922;2023-04-06T08:56:22;13.95;;;7.47;;
76667;SDS011;65585;51.166;16.922;2023-04-06T08:58:49;11.13;;;7.57;;
76667;SDS011;65585;51.166;16.922;2023-04-06T09:01:38;9.02;;;6.63;;
76667;SDS011;65585;51.166;16.922;2023-04-06T09:04:11;10.13;;;6.85;;
76667;SDS011;65585;51.166;16.922;2023-04-06T09:06:37;13.73;;;8.13;;
76667;SDS011;65585;51.166;16.922;2023-04-06T09:09:04;13.73;;;8.68;;
76667;SDS011;65585;51.166;16.922;2023-04-06T09:11:43;14.40;;;8.38;;
76667;SDS011;65585;51.166;16.922;2023-04-06T09:14:37;9.15;;;6.57;;
76667;SDS011;65585;51.166;16.922;2023-04-06T09:17:04;14.45;;;8.43;;
76667;SDS011;65585;51.166;16.922;2023-04-06T09:19:31;12.23;;;8.23;;
76667;SDS011;65585;51.166;16.922;2023-04-06T09:22:03;13.20;;;7.53;;
76667;SDS011;65585;51.166;16.922;2023-04-06T09:24:47;12.93;;;8.10;;
76667;SDS011;65585;51.166;16.922;2023-04-06T09:27:16;14.82;;;8.57;;
76667;SDS011;65585;51.166;16.922;2023-04-06T09:29:47;13.68;;;7.97;;
76667;SDS011;65585;51.166;16.922;2023-04-06T09:32:21;16.33;;;9.40;;
76667;SDS011;65585;51.166;16.922;2023-04-06T09:34:50;12.80;;;8.13;;
76667;SDS011;65585;51.166;16.922;2023-04-06T09:37:17;11.23;;;7.75;;
76667;SDS011;65585;51.166;16.922;2023-04-06T09:39:48;11.63;;;8.20;;
76667;SDS011;65585;51.166;16.922;2023-04-06T09:42:24;12.77;;;7.68;;
76667;SDS011;65585;51.166;16.922;2023-04-06T09:44:58;10.02;;;6.88;;
76667;SDS011;65585;51.166;16.922;2023-04-06T09:47:30;10.48;;;6.95;;
76667;SDS011;65585;51.166;16.922;2023-04-06T09:50:03;10.15;;;6.07;;
76667;SDS011;65585;51.166;16.922;2023-04-06T09:52:37;8.65;;;6.53;;
76667;SDS011;65585;51.166;16.922;2023-04-06T09:55:22;9.50;;;7.13;;
76667;SDS011;65585;51.166;16.922;2023-04-06T09:58:09;11.02;;;7.78;;
76667;SDS011;65585;51.166;16.922;2023-04-06T10:00:51;12.38;;;7.65;;
76667;SDS011;65585;51.166;16.922;2023-04-06T10:03:56;11.68;;;7.10;;
76667;SDS011;65585;51.166;16.922;2023-04-06T10:06:47;12.13;;;7.15;;
76667;SDS011;65585;51.166;16.922;2023-04-06T10:09:24;10.60;;;6.30;;
76667;SDS011;65585;51.166;16.922;2023-04-06T10:12:07;10.82;;;7.00;;
76667;SDS011;65585;51.166;16.922;2023-04-06T10:14:33;10.35;;;6.35;;
76667;SDS011;65585;51.166;16.922;2023-04-06T10:17:15;10.35;;;6.28;;
76667;SDS011;65585;51.166;16.922;2023-04-06T10:20:01;10.75;;;6.63;;
76667;SDS011;65585;51.166;16.922;2023-04-06T10:25:09;8.95;;;5.70;;
76667;SDS011;65585;51.166;16.922;2023-04-06T10:27:36;8.73;;;5.93;;
76667;SDS011;65585;51.166;16.922;2023-04-06T10:30:02;10.30;;;5.57;;
76667;SDS011;65585;51.166;16.922;2023-04-06T10:32:34;6.22;;;4.78;;
76667;SDS011;65585;51.166;16.922;2023-04-06T10:35:10;6.13;;;4.07;;
76667;SDS011;65585;51.166;16.922;2023-04-06T10:37:49;9.02;;;5.80;;
76667;SDS011;65585;51.166;16.922;2023-04-06T10:40:24;9.15;;;5.53;;
76667;SDS011;65585;51.166;16.922;2023-04-06T10:42:52;9.55;;;5.45;;
76667;SDS011;65585;51.166;16.922;2023-04-06T10:45:22;9.45;;;6.25;;
76667;SDS011;65585;51.166;16.922;2023-04-06T10:47:52;10.52;;;6.07;;
76667;SDS011;65585;51.166;16.922;2023-04-06T10:50:19;8.27;;;6.32;;
76667;SDS011;65585;51.166;16.922;2023-04-06T10:52:46;7.93;;;5.78;;
76667;SDS011;65585;51.166;16.922;2023-04-06T10:55:17;9.25;;;6.47;;
76667;SDS011;65585;51.166;16.922;2023-04-06T10:57:52;9.73;;;7.15;;
76667;SDS011;65585;51.166;16.922;2023-04-06T11:00:18;10.18;;;7.07;;
76667;SDS011;65585;51.166;16.922;2023-04-06T11:03:07;8.30;;;6.10;;
76667;SDS011;65585;51.166;16.922;2023-04-06T11:05:37;9.00;;;6.65;;
76667;SDS011;65585;51.166;16.922;2023-04-06T11:08:04;11.35;;;6.97;;
76667;SDS011;65585;51.166;16.922;2023-04-06T11:10:33;12.00;;;5.60;;
76667;SDS011;65585;51.166;16.922;2023-04-06T11:13:05;7.72;;;5.45;;
76667;SDS011;65585;51.166;16.922;2023-04-06T11:15:42;9.00;;;6.00;;
76667;SDS011;65585;51.166;16.922;2023-04-06T11:18:12;9.65;;;6.78;;
76667;SDS011;65585;51.166;16.922;2023-04-06T11:20:47;9.02;;;6.25;;
76667;SDS011;65585;51.166;16.922;2023-04-06T11:23:21;8.05;;;5.90;;
76667;SDS011;65585;51.166;16.922;2023-04-06T11:25:51;9.43;;;6.55;;
76667;SDS011;65585;51.166;16.922;2023-04-06T11:28:20;9.55;;;6.35;;
76667;SDS011;65585;51.166;16.922;2023-04-06T11:30:46;11.23;;;6.63;;
76667;SDS011;65585;51.166;16.922;2023-04-06T11:33:27;8.65;;;6.22;;
76667;SDS011;65585;51.166;16.922;2023-04-06T11:39:37;9.80;;;6.57;;
76667;SDS011;65585;51.166;16.922;2023-04-06T11:42:09;9.25;;;6.30;;
76667;SDS011;65585;51.166;16.922;2023-04-06T11:44:40;7.25;;;6.05;;
76667;SDS011;65585;51.166;16.922;2023-04-06T11:47:14;7.95;;;5.55;;
76667;SDS011;65585;51.166;16.922;2023-04-06T11:49:48;7.30;;;5.78;;
76667;SDS011;65585;51.166;16.922;2023-04-06T11:52:26;8.55;;;5.88;;
76667;SDS011;65585;51.166;16.922;2023-04-06T11:54:53;9.20;;;6.32;;
76667;SDS011;65585;51.166;16.922;2023-04-06T11:57:34;6.60;;;5.30;;
76667;SDS011;65585;51.166;16.922;2023-04-06T12:00:10;8.52;;;5.85;;
76667;SDS011;65585;51.166;16.922;2023-04-06T12:02:38;8.18;;;6.32;;
76667;SDS011;65585;51.166;16.922;2023-04-06T12:05:09;9.07;;;6.72;;
76667;SDS011;65585;51.166;16.922;2023-04-06T12:10:50;7.78;;;6.72;;
76667;SDS011;65585;51.166;16.922;2023-04-06T12:13:20;10.23;;;6.80;;
76667;SDS011;65585;51.166;16.922;2023-04-06T12:15:54;8.60;;;6.63;;
76667;SDS011;65585;51.166;16.922;2023-04-06T12:26:35;11.05;;;6.20;;
76667;SDS011;65585;51.166;16.922;2023-04-06T12:29:18;11.57;;;7.68;;
76667;SDS011;65585;51.166;16.922;2023-04-06T12:31:45;8.55;;;6.90;;
76667;SDS011;65585;51.166;16.922;2023-04-06T12:34:21;10.32;;;7.45;;
76667;SDS011;65585;51.166;16.922;2023-04-06T12:36:58;9.30;;;7.10;;
76667;SDS011;65585;51.166;16.922;2023-04-06T12:39:35;9.77;;;6.45;;
76667;SDS011;65585;51.166;16.922;2023-04-06T12:42:10;9.75;;;6.85;;
76667;SDS011;65585;51.166;16.922;2023-04-06T12:44:49;10.18;;;5.72;;
76667;SDS011;65585;51.166;16.922;2023-04-06T12:47:24;9.82;;;7.65;;
76667;SDS011;65585;51.166;16.922;2023-04-06T12:49:54;8.23;;;6.53;;
76667;SDS011;65585;51.166;16.922;2023-04-06T12:52:28;9.70;;;7.07;;
76667;SDS011;65585;51.166;16.922;2023-04-06T12:55:06;9.10;;;7.00;;
76667;SDS011;65585;51.166;16.922;2023-04-06T12:57:50;10.05;;;6.45;;
76667;SDS011;65585;51.166;16.922;2023-04-06T13:00:29;10.52;;;6.75;;
76667;SDS011;65585;51.166;16.922;2023-04-06T13:03:04;7.85;;;6.05;;
76667;SDS011;65585;51.166;16.922;2023-04-06T13:05:50;15.77;;;6.45;;
76667;SDS011;65585;51.166;16.922;2023-04-06T13:08:30;6.70;;;5.80;;
76667;SDS011;65585;51.166;16.922;2023-04-06T13:10:58;9.20;;;6.43;;
76667;SDS011;65585;51.166;16.922;2023-04-06T13:13:26;9.98;;;6.50;;
76667;SDS011;65585;51.166;16.922;2023-04-06T13:16:01;10.60;;;6.50;;
76667;SDS011;65585;51.166;16.922;2023-04-06T13:18:43;8.75;;;6.75;;
76667;SDS011;65585;51.166;16.922;2023-04-06T13:21:12;7.85;;;6.55;;
76667;SDS011;65585;51.166;16.922;2023-04-06T13:23:54;7.63;;;6.13;;
76667;SDS011;65585;51.166;16.922;2023-04-06T13:26:43;10.23;;;6.40;;
76667;SDS011;65585;51.166;16.922;2023-04-06T13:29:29;9.02;;;6.72;;
76667;SDS011;65585;51.166;16.922;2023-04-06T13:32:03;7.53;;;6.68;;
76667;SDS011;65585;51.166;16.922;2023-04-06T13:34:34;9.32;;;7.53;;
76667;SDS011;65585;51.166;16.922;2023-04-06T13:37:02;8.43;;;7.03;;
76667;SDS011;65585;51.166;16.922;2023-04-06T13:39:31;10.68;;;7.63;;
76667;SDS011;65585;51.166;16.922;2023-04-06T13:42:05;10.75;;;7.20;;
76667;SDS011;65585;51.166;16.922;2023-04-06T13:44:34;10.90;;;7.70;;
76667;SDS011;65585;51.166;16.922;2023-04-06T13:47:06;9.27;;;7.55;;
76667;SDS011;65585;51.166;16.922;2023-04-06T13:49:32;9.35;;;8.30;;
76667;SDS011;65585;51.166;16.922;2023-04-06T13:52:01;10.52;;;7.75;;
76667;SDS011;65585;51.166;16.922;2023-04-06T13:54:27;8.35;;;7.32;;
76667;SDS011;65585;51.166;16.922;2023-04-06T13:56:54;10.73;;;7.38;;
76667;SDS011;65585;51.166;16.922;2023-04-06T13:59:20;10.18;;;7.53;;
76667;SDS011;65585;51.166;16.922;2023-04-06T14:01:47;10.10;;;7.45;;
76667;SDS011;65585;51.166;16.922;2023-04-06T14:04:16;9.63;;;7.55;;
76667;SDS011;65585;51.166;16.922;2023-04-06T14:06:48;12.05;;;8.02;;
76667;SDS011;65585;51.166;16.922;2023-04-06T14:09:14;10.45;;;8.57;;
76667;SDS011;65585;51.166;16.922;2023-04-06T14:11:41;10.77;;;7.97;;
76667;SDS011;65585;51.166;16.922;2023-04-06T14:14:07;9.52;;;7.47;;
76667;SDS011;65585;51.166;16.922;2023-04-06T14:16:34;8.48;;;7.05;;
76667;SDS011;65585;51.166;16.922;2023-04-06T14:19:00;9.27;;;7.25;;
76667;SDS011;65585;51.166;16.922;2023-04-06T14:21:30;10.30;;;7.28;;
76667;SDS011;65585;51.166;16.922;2023-04-06T14:23:59;9.35;;;7.18;;
76667;SDS011;65585;51.166;16.922;2023-04-06T14:26:26;9.65;;;8.07;;
76667;SDS011;65585;51.166;16.922;2023-04-06T14:28:55;9.63;;;7.80;;
76667;SDS011;65585;51.166;16.922;2023-04-06T14:31:25;8.52;;;7.22;;
76667;SDS011;65585;51.166;16.922;2023-04-06T14:33:54;8.93;;;7.47;;
76667;SDS011;65585;51.166;16.922;2023-04-06T14:36:26;7.93;;;6.85;;
76667;SDS011;65585;51.166;16.922;2023-04-06T14:38:58;11.25;;;6.97;;
76667;SDS011;65585;51.166;16.922;2023-04-06T14:41:27;10.50;;;7.22;;
76667;SDS011;65585;51.166;16.922;2023-04-06T14:43:53;9.68;;;7.28;;
76667;SDS011;65585;51.166;16.922;2023-04-06T14:46:23;9.07;;;7.75;;
76667;SDS011;65585;51.166;16.922;2023-04-06T14:48:57;9.95;;;7.60;;
76667;SDS011;65585;51.166;16.922;2023-04-06T14:51:33;10.90;;;8.25;;
76667;SDS011;65585;51.166;16.922;2023-04-06T14:54:02;10.20;;;7.28;;
76667;SDS011;65585;51.166;16.922;2023-04-06T14:56:29;9.82;;;6.90;;
76667;SDS011;65585;51.166;16.922;2023-04-06T14:58:57;10.48;;;7.63;;
76667;SDS011;65585;51.166;16.922;2023-04-06T15:01:24;10.23;;;6.47;;
76667;SDS011;65585;51.166;16.922;2023-04-06T15:03:50;10.18;;;7.47;;
76667;SDS011;65585;51.166;16.922;2023-04-06T15:06:17;10.15;;;7.53;;
76667;SDS011;65585;51.166;16.922;2023-04-06T15:08:45;10.20;;;7.07;;
76667;SDS011;65585;51.166;16.922;2023-04-06T15:11:13;8.75;;;6.65;;
76667;SDS011;65585;51.166;16.922;2023-04-06T15:13:39;9.25;;;7.28;;
76667;SDS011;65585;51.166;16.922;2023-04-06T15:16:08;8.68;;;7.40;;
76667;SDS011;65585;51.166;16.922;2023-04-06T15:18:40;9.95;;;7.38;;
76667;SDS011;65585;51.166;16.922;2023-04-06T15:21:07;10.88;;;7.13;;
76667;SDS011;65585;51.166;16.922;2023-04-06T15:23:36;8.48;;;6.43;;
76667;SDS011;65585;51.166;16.922;2023-04-06T15:26:17;11.70;;;7.13;;
76667;SDS011;65585;51.166;16.922;2023-04-06T15:28:43;10.02;;;7.35;;
76667;SDS011;65585;51.166;16.922;2023-04-06T15:31:14;9.18;;;6.80;;
76667;SDS011;65585;51.166;16.922;2023-04-06T15:33:40;9.73;;;6.97;;
76667;SDS011;65585;51.166;16.922;2023-04-06T15:36:08;8.93;;;6.68;;
76667;SDS011;65585;51.166;16.922;2023-04-06T15:38:48;10.13;;;6.50;;
76667;SDS011;65585;51.166;16.922;2023-04-06T15:41:16;9.32;;;6.32;;
76667;SDS011;65585;51.166;16.922;2023-04-06T15:43:43;8.88;;;6.45;;
76667;SDS011;65585;51.166;16.922;2023-04-06T15:46:12;7.65;;;5.93;;
76667;SDS011;65585;51.166;16.922;2023-04-06T15:48:40;8.68;;;6.30;;
76667;SDS011;65585;51.166;16.922;2023-04-06T15:51:07;15.70;;;5.70;;
76667;SDS011;65585;51.166;16.922;2023-04-06T15:53:34;10.50;;;6.82;;
76667;SDS011;65585;51.166;16.922;2023-04-06T15:56:02;9.35;;;6.75;;
76667;SDS011;65585;51.166;16.922;2023-04-06T15:58:31;10.15;;;7.28;;
76667;SDS011;65585;51.166;16.922;2023-04-06T16:00:58;11.70;;;6.45;;
76667;SDS011;65585;51.166;16.922;2023-04-06T16:03:24;8.07;;;6.28;;
76667;SDS011;65585;51.166;16.922;2023-04-06T16:05:52;10.70;;;7.15;;
76667;SDS011;65585;51.166;16.922;2023-04-06T16:08:20;8.27;;;6.60;;
76667;SDS011;65585;51.166;16.922;2023-04-06T16:10:47;7.75;;;6.25;;